^^
Station Historical Data
Daily Summary for February 10, 2017 Units:  Metric    English   Both
« Previous Day
Next Day »
Daily Weekly Monthly Yearly Custom
  High: Low: Average:
Temperature: 36.9 °C 22.3 °C 26.8 °C
Dew Point: 21 °C 14.7 °C 18.7 °C
Humidity: 87% 27% 65%
Wind Speed: 17.7km/h 0km/h 2.9km/h
Wind Gust: 27.4km/h - -
Wind- - SSW
Pressure: 1008.4 hPa 1001.6 hPa -
Precipitation: 0.51 mm    
Historical Graphs
 
 
Tabular Data for February 10, 2017
Time Temperature Dew Point Pressure Wind Wind Speed Wind Gust Humidity Rainfall Rate (Hourly) solar Conditions
00:03 25.1 °C 20.8 °C 1008 hPa Calm     77% 0 mm 0.0 W/m2
00:09 25.2 °C 19.8 °C 1008 hPa Calm     72% 0 mm 0.0 W/m2
00:19 25.9 °C 18.3 °C 1008.4 hPa Calm     63% 0 mm 0.0 W/m2
00:24 26.1 °C 18.8 °C 1008.4 hPa Calm     64% 0 mm 0.0 W/m2
00:29 26 °C 18.2 °C 1008.4 hPa NE 3.2 km/h 12.9 km/h 62% 0 mm 0.0 W/m2
00:39 26 °C 18.4 °C 1008.4 hPa Calm   9.7 km/h 63% 0 mm 0.0 W/m2
00:45 25.9 °C 18.6 °C 1008.4 hPa Calm   6.4 km/h 64% 0 mm 0.0 W/m2
00:55 25.9 °C 18.6 °C 1008 hPa Calm     64% 0 mm 0.0 W/m2
01:01 25.9 °C 18.8 °C 1008 hPa Calm     65% 0 mm 0.0 W/m2
01:06 26 °C 18.9 °C 1008 hPa NNE 9.7 km/h 9.7 km/h 65% 0 mm 0.0 W/m2
01:11 26 °C 19.4 °C 1008 hPa Calm     67% 0 mm 0.0 W/m2
01:21 25.9 °C 19.5 °C 1008 hPa NNE 3.2 km/h 17.7 km/h 68% 0 mm 0.0 W/m2
01:36 25.8 °C 19.7 °C 1008 hPa Calm   9.7 km/h 69% 0 mm 0.0 W/m2
01:45 25.7 °C 19.6 °C 1008 hPa North 13 km/h 13 km/h 69% 0 mm 0.0 W/m2
01:51 25.7 °C 19.1 °C 1008 hPa North 9.7 km/h 20.9 km/h 67% 0 mm 0.0 W/m2
02:17 25.3 °C 18.7 °C 1008 hPa Calm   24.1 km/h 67% 0 mm 0.0 W/m2
02:22 25.3 °C 18.7 °C 1007.7 hPa North 11.1 km/h 24.1 km/h 67% 0 mm 0.0 W/m2
02:27 25.2 °C 18.6 °C 1007.7 hPa Calm   20.9 km/h 67% 0 mm 0.0 W/m2
02:37 25.1 °C 18.5 °C 1007.3 hPa North 17.7 km/h 27.4 km/h 67% 0 mm 0.0 W/m2
02:52 24.9 °C 18.8 °C 1007.3 hPa North 9.7 km/h 20.9 km/h 69% 0 mm 0.0 W/m2
03:02 24.9 °C 18.8 °C 1007 hPa North 7.9 km/h 24.1 km/h 69% 0 mm 0.0 W/m2
03:22 24.8 °C 19 °C 1007.3 hPa NE 9.7 km/h 17.7 km/h 70% 0 mm 0.0 W/m2
03:37 24.7 °C 19.1 °C 1007.3 hPa NNE 1.4 km/h 6.4 km/h 71% 0 mm 0.0 W/m2
03:42 24.6 °C 19 °C 1007.3 hPa Calm   11.3 km/h 71% 0 mm 0.0 W/m2
03:47 24.6 °C 19.2 °C 1007 hPa NNE 7.9 km/h 12.9 km/h 72% 0 mm 0.0 W/m2
03:52 24.6 °C 19.2 °C 1007 hPa NNE 6.4 km/h 12.9 km/h 72% 0 mm 0.0 W/m2
03:57 24.4 °C 19 °C 1007 hPa NNE 1.4 km/h 12.9 km/h 72% 0 mm 0.0 W/m2
04:03 24.4 °C 19.2 °C 1006.7 hPa Calm   8 km/h 73% 0 mm 0.0 W/m2
04:13 24.3 °C 19.4 °C 1007 hPa Calm     74% 0 mm 0.0 W/m2
04:24 24.2 °C 19.3 °C 1006.7 hPa Calm     74% 0 mm 0.0 W/m2
04:29 24.2 °C 19.3 °C 1007 hPa Calm     74% 0 mm 0.0 W/m2
04:34 24.2 °C 19.5 °C 1007 hPa Calm     75% 0 mm 0.0 W/m2
04:40 24.2 °C 19.5 °C 1007 hPa Calm     75% 0 mm 0.0 W/m2
04:45 24.1 °C 19.4 °C 1006.7 hPa Calm     75% 0 mm 0.0 W/m2
04:51 24.1 °C 19.4 °C 1007 hPa Calm     75% 0 mm 0.0 W/m2
04:56 23.9 °C 19.6 °C 1007 hPa Calm     77% 0 mm 0.0 W/m2
05:01 23.6 °C 19.7 °C 1007 hPa Calm     79% 0 mm 0.0 W/m2
05:06 23.4 °C 19.8 °C 1007 hPa Calm     80% 0 mm 0.0 W/m2
05:11 23.2 °C 19.8 °C 1007 hPa Calm     81% 0 mm 0.0 W/m2
05:16 23.1 °C 19.5 °C 1007 hPa Calm     80% 0 mm 0.0 W/m2
05:21 23.2 °C 19.6 °C 1007 hPa Calm     80% 0 mm 0.0 W/m2
05:26 23.2 °C 19.8 °C 1006.7 hPa Calm     81% 0 mm 0.0 W/m2
05:31 23.2 °C 20 °C 1006.7 hPa Calm     82% 0 mm 0.0 W/m2
05:36 23.1 °C 19.9 °C 1006.7 hPa Calm     82% 0 mm 0.0 W/m2
05:45 22.9 °C 20.1 °C 1006.7 hPa Calm     84% 0 mm 0.0 W/m2
05:57 22.7 °C 20 °C 1006.7 hPa Calm     85% 0 mm 0.0 W/m2
06:08 22.4 °C 19.8 °C 1006.3 hPa Calm     85% 0 mm 0.0 W/m2
06:24 22.3 °C 20 °C 1006.3 hPa Calm     87% 0 mm 0.0 W/m2
06:39 22.3 °C 19.7 °C 1006.3 hPa Calm     85% 0 mm 7.0 W/m2
06:55 22.6 °C 19.6 °C 1006.3 hPa Calm   11.3 km/h 83% 0 mm 16.0 W/m2
07:10 23.2 °C 20 °C 1006.3 hPa Calm   8 km/h 82% 0 mm 47.0 W/m2
07:24 23.7 °C 20 °C 1006.3 hPa Calm     80% 0 mm 97.0 W/m2
07:31 24 °C 20.1 °C 1006.3 hPa Calm     79% 0 mm 139.0 W/m2
07:37 24.2 °C 20.1 °C 1006.3 hPa Calm     78% 0 mm 160.0 W/m2
07:42 24.4 °C 19.9 °C 1006.3 hPa Calm   6.4 km/h 76% 0 mm 181.0 W/m2
12:13 31.8 °C 16.9 °C 1006.7 hPa Calm     41% 0 mm 919.0 W/m2
12:18 32.3 °C 17 °C 1006.3 hPa NNW 9.7 km/h 14.5 km/h 40% 0 mm 926.0 W/m2
12:28 32.8 °C 16.2 °C 1006.3 hPa NNW 1.4 km/h 19.3 km/h 37% 0 mm 935.0 W/m2
12:38 32.8 °C 16.2 °C 1006 hPa NNW 6.4 km/h 6.4 km/h 37% 0 mm 939.0 W/m2
12:54 33.3 °C 16.6 °C 1006 hPa Calm   11.3 km/h 37% 0 mm 944.0 W/m2
13:16 34.1 °C 16.5 °C 1005.6 hPa NNW 13 km/h 20.9 km/h 35% 0 mm 944.0 W/m2
13:31 34.1 °C 16 °C 1005.3 hPa Calm     34% 0 mm 940.0 W/m2
13:40 34.1 °C 16 °C 1005 hPa North 6.4 km/h 17.7 km/h 34% 0 mm 933.0 W/m2
13:50 34.6 °C 15.5 °C 1005 hPa North 3.2 km/h 3.2 km/h 32% 0 mm 928.0 W/m2
14:05 34.9 °C 15.8 °C 1004.6 hPa Calm     32% 0 mm 914.0 W/m2
14:15 35.1 °C 15.9 °C 1004.6 hPa NNW 3.2 km/h 20.9 km/h 32% 0 mm 896.0 W/m2
14:20 34.7 °C 15.6 °C 1004.3 hPa Calm   1.6 km/h 32% 0 mm 895.0 W/m2
14:25 34.7 °C 15.6 °C 1004.3 hPa NNW 17.7 km/h 19.3 km/h 32% 0 mm 891.0 W/m2
14:30 35.2 °C 15.5 °C 1003.9 hPa NNW 17.7 km/h 22.5 km/h 31% 0 mm 902.0 W/m2
16:49 36.7 °C 14.7 °C 1001.6 hPa North 6.4 km/h 12.9 km/h 27% 0 mm 589.0 W/m2
16:56 36.9 °C 15.4 °C 1001.6 hPa Calm   14.5 km/h 28% 0 mm 510.0 W/m2
17:06 36.9 °C 14.8 °C 1001.6 hPa North 17.7 km/h 19.3 km/h 27% 0 mm 499.0 W/m2
22:31 26 °C 20.1 °C 1005 hPa NW 17.7 km/h 17.7 km/h 70% 0.51 mm 0.0 W/m2
22:53 26.7 °C 20.1 °C 1005 hPa Calm     67% 0.51 mm 0.0 W/m2
23:03 26.8 °C 20.2 °C 1005 hPa Calm     67% 0 mm 0.0 W/m2
23:12 26.7 °C 20.3 °C 1004.6 hPa Calm     68% 0 mm 0.0 W/m2
23:19 26.7 °C 20.8 °C 1004.6 hPa Calm     70% 0 mm 0.0 W/m2
23:45 26.5 °C 21 °C 1004.6 hPa Calm     72% 0 mm 0.0 W/m2
23:50 26.5 °C 21 °C 1004.6 hPa Calm     72% 0 mm 0.0 W/m2
23:54 26.5 °C 20.8 °C 1004.6 hPa Calm     71% 0 mm 0.0 W/m2
Canyon Roadhouse, Fishriver Canyon, Namibia
Compliments of Weather Underground - 2 mb